createdAt,value
2023-04-19T00:00:03.065Z,0.00
2023-04-19T00:01:03.059Z,0.00
2023-04-19T00:02:03.134Z,0.00
2023-04-19T00:03:03.150Z,0.00
2023-04-19T00:04:03.336Z,0.00
2023-04-19T00:05:03.121Z,0.00
2023-04-19T00:06:03.002Z,0.00
2023-04-19T00:07:03.005Z,0.00
2023-04-19T00:08:02.978Z,0.00
2023-04-19T00:09:02.968Z,0.00
2023-04-19T00:10:02.957Z,0.00
2023-04-19T00:11:02.958Z,0.00
2023-04-19T00:12:02.962Z,0.00
2023-04-19T00:13:02.991Z,0.00
2023-04-19T00:14:02.913Z,0.00
2023-04-19T00:15:02.907Z,0.00
2023-04-19T00:16:02.894Z,0.00
2023-04-19T00:17:03.023Z,0.00
2023-04-19T00:18:02.948Z,0.00
2023-04-19T00:19:02.862Z,0.00
2023-04-19T00:20:02.853Z,0.00
2023-04-19T00:21:02.843Z,0.00
2023-04-19T00:22:02.859Z,0.00
2023-04-19T00:23:02.818Z,0.00
2023-04-19T00:24:02.807Z,0.00
2023-04-19T00:25:02.795Z,0.00
2023-04-19T00:26:02.780Z,0.00
2023-04-19T00:27:02.792Z,0.00
2023-04-19T00:28:02.761Z,0.00
2023-04-19T00:29:02.776Z,0.00
2023-04-19T00:30:02.734Z,0.00
2023-04-19T00:31:02.829Z,0.00
2023-04-19T00:32:02.720Z,0.00
2023-04-19T00:33:02.800Z,0.00
2023-04-19T00:34:02.693Z,0.00
2023-04-19T00:35:02.683Z,0.00
2023-04-19T00:36:02.688Z,0.00
2023-04-19T00:37:02.713Z,0.00
2023-04-19T00:38:02.653Z,0.00
2023-04-19T00:39:02.651Z,0.00
2023-04-19T00:40:02.647Z,0.00
2023-04-19T00:41:02.634Z,0.00
2023-04-19T00:42:02.608Z,0.00
2023-04-19T00:43:02.594Z,0.00
2023-04-19T00:44:02.590Z,0.00
2023-04-19T00:45:02.611Z,0.00
2023-04-19T00:46:02.631Z,0.00
2023-04-19T00:47:02.563Z,0.00
2023-04-19T00:48:02.667Z,0.00
2023-04-19T00:49:02.532Z,0.00
2023-04-19T00:50:02.538Z,0.00
2023-04-19T00:51:02.576Z,0.00
2023-04-19T00:52:02.542Z,0.00
2023-04-19T00:53:02.563Z,0.00
2023-04-19T00:54:02.548Z,0.00
2023-04-19T00:55:02.578Z,0.00
2023-04-19T00:56:02.521Z,0.00
2023-04-19T00:57:02.442Z,0.00
2023-04-19T00:58:02.430Z,0.00
2023-04-19T00:59:02.420Z,0.00
2023-04-19T01:00:02.428Z,0.00
2023-04-19T01:01:02.488Z,0.00
2023-04-19T01:02:02.524Z,0.00
2023-04-19T01:03:02.575Z,0.00
2023-04-19T01:04:02.438Z,0.00
2023-04-19T01:05:02.362Z,0.00
2023-04-19T01:06:02.450Z,0.00
2023-04-19T01:07:02.340Z,0.00
2023-04-19T01:08:02.322Z,0.00
2023-04-19T01:09:02.315Z,0.00
2023-04-19T01:10:02.294Z,0.00
2023-04-19T01:11:02.303Z,0.00
2023-04-19T01:12:02.299Z,0.00
2023-04-19T01:13:02.270Z,0.00
2023-04-19T01:14:02.254Z,0.00
2023-04-19T01:15:02.245Z,0.00
2023-04-19T01:16:02.326Z,0.00
2023-04-19T01:17:02.246Z,0.00
2023-04-19T01:18:02.320Z,0.00
2023-04-19T01:19:02.255Z,0.00
2023-04-19T01:20:02.191Z,0.00
2023-04-19T01:21:02.198Z,0.00
2023-04-19T01:22:02.177Z,0.00
2023-04-19T01:23:02.166Z,0.00
2023-04-19T01:24:02.170Z,0.00
2023-04-19T01:25:02.141Z,0.00
2023-04-19T01:26:02.151Z,0.00
2023-04-19T01:27:02.110Z,0.00
2023-04-19T01:28:02.100Z,0.00
2023-04-19T01:29:02.134Z,0.00
2023-04-19T01:30:02.108Z,0.00
2023-04-19T01:31:02.116Z,0.00
2023-04-19T01:32:02.103Z,0.00
2023-04-19T01:33:02.127Z,0.00
2023-04-19T01:34:02.056Z,0.00
2023-04-19T01:35:02.036Z,0.00
2023-04-19T01:36:02.040Z,0.00
2023-04-19T01:37:02.010Z,0.00
2023-04-19T01:38:02.120Z,0.00
2023-04-19T01:39:01.982Z,0.00
2023-04-19T01:40:01.979Z,0.00
2023-04-19T01:41:01.978Z,0.00
2023-04-19T01:42:01.950Z,0.00
2023-04-19T01:43:01.938Z,0.00
2023-04-19T01:44:02.053Z,0.00
2023-04-19T01:45:01.959Z,0.00
2023-04-19T01:46:01.915Z,0.00
2023-04-19T01:47:02.026Z,0.00
2023-04-19T01:48:01.948Z,0.00
2023-04-19T01:49:01.927Z,0.00
2023-04-19T01:50:01.892Z,0.00
2023-04-19T01:51:01.918Z,0.00
2023-04-19T01:52:01.862Z,0.00
2023-04-19T01:53:01.833Z,0.00
2023-04-19T01:54:01.823Z,0.00
2023-04-19T01:55:01.864Z,0.00
2023-04-19T01:56:01.815Z,0.00
2023-04-19T01:57:01.846Z,0.00
2023-04-19T01:58:01.776Z,0.00
2023-04-19T01:59:01.770Z,0.00
2023-04-19T02:00:01.791Z,0.00
2023-04-19T02:01:01.767Z,0.00
2023-04-19T02:02:01.884Z,0.00
2023-04-19T02:03:09.688Z,0.00
2023-04-19T02:04:02.000Z,0.00
2023-04-19T02:05:01.754Z,0.00
2023-04-19T02:06:01.695Z,0.00
2023-04-19T02:07:01.691Z,0.00
2023-04-19T02:08:01.754Z,0.00
2023-04-19T02:09:01.665Z,0.00
2023-04-19T02:10:01.734Z,0.00
2023-04-19T02:11:01.637Z,0.00
2023-04-19T02:12:01.630Z,0.00
2023-04-19T02:13:01.632Z,0.00
2023-04-19T02:14:01.640Z,0.00
2023-04-19T02:15:01.610Z,0.00
2023-04-19T02:16:01.662Z,0.00
2023-04-19T02:17:01.579Z,0.00
2023-04-19T02:18:01.602Z,0.00
2023-04-19T02:19:01.644Z,0.00
2023-04-19T02:20:01.561Z,0.00
2023-04-19T02:21:01.552Z,0.00
2023-04-19T02:22:01.539Z,0.00
2023-04-19T02:23:01.529Z,0.00
2023-04-19T02:24:01.505Z,0.00
2023-04-19T02:25:01.583Z,0.00
2023-04-19T02:26:01.510Z,0.00
2023-04-19T02:27:01.469Z,0.00
2023-04-19T02:28:01.463Z,0.00
2023-04-19T02:29:01.449Z,0.00
2023-04-19T02:30:01.480Z,0.00
2023-04-19T02:31:01.434Z,0.00
2023-04-19T02:32:01.541Z,0.00
2023-04-19T02:33:01.429Z,0.00
2023-04-19T02:34:01.393Z,0.00
2023-04-19T02:35:01.414Z,0.00
2023-04-19T02:36:01.380Z,0.00
2023-04-19T02:37:01.382Z,0.00
2023-04-19T02:38:01.350Z,0.00
2023-04-19T02:39:01.335Z,0.00
2023-04-19T02:40:01.464Z,0.00
2023-04-19T02:41:01.320Z,0.00
2023-04-19T02:42:01.330Z,0.00
2023-04-19T02:43:01.297Z,0.00
2023-04-19T02:44:01.304Z,0.00
2023-04-19T02:45:01.307Z,0.00
2023-04-19T02:46:01.296Z,0.00
2023-04-19T02:47:01.255Z,0.00
2023-04-19T02:48:01.322Z,0.00
2023-04-19T02:49:01.230Z,0.00
2023-04-19T02:50:01.312Z,0.00
2023-04-19T02:51:01.213Z,0.00
2023-04-19T02:52:01.198Z,0.00
2023-04-19T02:53:01.215Z,0.00
2023-04-19T02:54:01.186Z,0.00
2023-04-19T02:55:01.220Z,0.00
2023-04-19T02:56:01.166Z,0.00
2023-04-19T02:57:01.197Z,0.00
2023-04-19T02:58:01.144Z,0.00
2023-04-19T02:59:01.166Z,0.00
2023-04-19T03:00:01.138Z,0.00
2023-04-19T03:01:01.108Z,0.00
2023-04-19T03:02:01.156Z,0.00
2023-04-19T03:03:01.341Z,0.00
2023-04-19T03:04:01.168Z,0.00
2023-04-19T03:05:01.059Z,0.00
2023-04-19T03:06:01.054Z,0.00
2023-04-19T03:07:01.037Z,0.00
2023-04-19T03:08:01.058Z,0.00
2023-04-19T03:09:01.166Z,0.00
2023-04-19T03:10:01.029Z,0.00
2023-04-19T03:11:00.991Z,0.00
2023-04-19T03:12:01.001Z,0.00
2023-04-19T03:13:00.976Z,0.00
2023-04-19T03:14:00.986Z,0.00
2023-04-19T03:15:00.978Z,0.00
2023-04-19T03:16:01.002Z,0.00
2023-04-19T03:17:00.928Z,0.00
2023-04-19T03:18:00.946Z,0.00
2023-04-19T03:19:00.935Z,0.00
2023-04-19T03:20:00.890Z,0.00
2023-04-19T03:21:00.879Z,0.00
2023-04-19T03:22:00.871Z,0.00
2023-04-19T03:23:00.855Z,0.00
2023-04-19T03:24:00.868Z,0.00
2023-04-19T03:25:00.871Z,4.00
2023-04-19T03:26:00.829Z,4.00
2023-04-19T03:27:00.822Z,0.00
2023-04-19T03:28:00.800Z,0.00
2023-04-19T03:29:00.786Z,0.00
2023-04-19T03:30:00.806Z,4.00
2023-04-19T03:31:00.789Z,0.00
2023-04-19T03:32:00.786Z,4.00
2023-04-19T03:33:00.772Z,0.00
2023-04-19T03:34:00.736Z,4.00
2023-04-19T03:35:00.738Z,4.00
2023-04-19T03:36:00.711Z,8.00
2023-04-19T03:37:00.708Z,4.00
2023-04-19T03:38:00.689Z,4.00
2023-04-19T03:39:00.697Z,8.00
2023-04-19T03:40:00.736Z,8.00
2023-04-19T03:41:00.679Z,8.00
2023-04-19T03:42:00.646Z,16.00
2023-04-19T03:43:00.638Z,16.00
2023-04-19T03:44:00.620Z,20.00
2023-04-19T03:45:00.634Z,20.00
2023-04-19T03:46:00.637Z,24.00
2023-04-19T03:47:00.594Z,28.00
2023-04-19T03:48:02.776Z,32.00
2023-04-19T03:49:00.573Z,36.00
2023-04-19T03:50:00.626Z,40.00
2023-04-19T03:51:00.554Z,44.00
2023-04-19T03:52:00.543Z,56.00
2023-04-19T03:53:00.522Z,60.00
2023-04-19T03:54:00.532Z,64.00
2023-04-19T03:55:00.555Z,72.00
2023-04-19T03:56:00.495Z,88.00
2023-04-19T03:57:00.518Z,96.00
2023-04-19T03:58:00.468Z,104.00
2023-04-19T03:59:00.459Z,116.00
2023-04-19T04:00:00.482Z,128.00
2023-04-19T04:01:00.437Z,140.00
2023-04-19T04:02:00.473Z,156.00
2023-04-19T04:03:00.656Z,172.00
2023-04-19T04:04:01.736Z,188.00
2023-04-19T04:05:00.540Z,204.00
2023-04-19T04:06:00.384Z,224.00
2023-04-19T04:07:00.373Z,244.00
2023-04-19T04:08:00.358Z,268.00
2023-04-19T04:09:00.373Z,292.00
2023-04-19T04:10:00.355Z,312.00
2023-04-19T04:11:00.325Z,336.00
2023-04-19T04:12:00.354Z,364.00
2023-04-19T04:13:00.339Z,388.00
2023-04-19T04:14:00.340Z,432.00
2023-04-19T04:15:00.288Z,472.00
2023-04-19T04:16:00.284Z,508.00
2023-04-19T04:17:00.261Z,544.00
2023-04-19T04:18:00.294Z,600.00
2023-04-19T04:19:00.266Z,664.00
2023-04-19T04:20:00.233Z,740.00
2023-04-19T04:21:00.212Z,784.00
2023-04-19T04:22:00.205Z,876.00
2023-04-19T04:23:00.198Z,988.00
2023-04-19T04:24:00.248Z,1040.00
2023-04-19T04:25:00.167Z,1076.00
2023-04-19T04:26:00.164Z,1144.00
2023-04-19T04:27:00.156Z,1212.00
2023-04-19T04:28:00.200Z,1280.00
2023-04-19T04:29:00.171Z,1300.00
2023-04-19T04:30:00.193Z,1332.00
2023-04-19T04:31:00.110Z,1368.00
2023-04-19T04:32:00.191Z,1424.00
2023-04-19T04:33:00.166Z,1476.00
2023-04-19T04:34:00.120Z,1540.00
2023-04-19T04:35:00.092Z,1612.00
2023-04-19T04:36:00.080Z,1696.00
2023-04-19T04:37:00.061Z,1740.00
2023-04-19T04:38:00.200Z,1748.00
2023-04-19T04:39:00.114Z,1744.00
2023-04-19T04:40:00.051Z,1816.00
2023-04-19T04:41:00.015Z,1908.00
2023-04-19T04:42:00.006Z,1948.00
2023-04-19T04:42:59.994Z,1980.00
2023-04-19T04:45:00.192Z,2180.00
2023-04-19T04:46:00.006Z,2280.00
2023-04-19T04:46:59.966Z,2420.00
2023-04-19T04:48:00.005Z,2460.00
2023-04-19T04:48:59.977Z,2452.00
2023-04-19T04:50:00.019Z,2488.00
2023-04-19T04:50:59.916Z,2472.00
2023-04-19T04:51:59.902Z,2420.00
2023-04-19T04:52:59.978Z,2480.00
2023-04-19T04:53:59.881Z,2528.00
2023-04-19T04:54:59.865Z,2580.00
2023-04-19T04:55:59.871Z,2636.00
2023-04-19T04:56:59.916Z,2780.00
2023-04-19T04:57:59.869Z,2904.00
2023-04-19T04:58:59.828Z,3008.00
2023-04-19T04:59:59.820Z,3100.00
2023-04-19T05:00:59.856Z,3108.00
2023-04-19T05:01:59.828Z,3176.00
2023-04-19T05:02:59.970Z,3136.00
2023-04-19T05:03:59.780Z,3252.00
2023-04-19T05:04:59.768Z,3192.00
2023-04-19T05:05:59.750Z,3264.00
2023-04-19T05:06:59.738Z,3320.00
2023-04-19T05:07:59.753Z,3308.00
2023-04-19T05:08:59.724Z,3220.00
2023-04-19T05:09:59.701Z,3116.00
2023-04-19T05:10:59.691Z,2944.00
2023-04-19T05:11:59.694Z,3160.00
2023-04-19T05:12:59.688Z,3556.00
2023-04-19T05:13:59.687Z,3692.00
2023-04-19T05:14:59.645Z,3652.00
2023-04-19T05:15:59.666Z,3600.00
2023-04-19T05:16:59.674Z,3572.00
2023-04-19T05:17:59.658Z,3604.00
2023-04-19T05:18:59.617Z,3820.00
2023-04-19T05:19:59.592Z,3948.00
2023-04-19T05:20:59.581Z,3952.00
2023-04-19T05:21:59.589Z,4072.00
2023-04-19T05:22:59.566Z,4068.00
2023-04-19T05:23:59.568Z,4064.00
2023-04-19T05:24:59.545Z,4100.00
2023-04-19T05:25:59.526Z,4148.00
2023-04-19T05:26:59.513Z,4104.00
2023-04-19T05:27:59.519Z,4132.00
2023-04-19T05:28:59.490Z,3932.00
2023-04-19T05:29:59.490Z,3792.00
2023-04-19T05:30:59.568Z,3892.00
2023-04-19T05:31:59.467Z,4364.00
2023-04-19T05:32:59.652Z,4708.00
2023-04-19T05:33:59.441Z,4808.00
2023-04-19T05:34:59.425Z,4752.00
2023-04-19T05:35:59.423Z,4648.00
2023-04-19T05:36:59.413Z,4680.00
2023-04-19T05:37:59.470Z,4888.00
2023-04-19T05:38:59.383Z,4780.00
2023-04-19T05:39:59.367Z,5096.00
2023-04-19T05:40:59.368Z,5168.00
2023-04-19T05:41:59.362Z,5144.00
2023-04-19T05:42:59.358Z,5168.00
2023-04-19T05:43:59.334Z,5204.00
2023-04-19T05:44:59.316Z,5240.00
2023-04-19T05:45:59.357Z,5240.00
2023-04-19T05:46:59.299Z,5412.00
2023-04-19T05:47:59.330Z,5496.00
2023-04-19T05:48:59.297Z,5504.00
2023-04-19T05:49:59.275Z,5520.00
2023-04-19T05:50:59.255Z,5496.00
2023-04-19T05:51:59.252Z,5412.00
2023-04-19T05:52:59.286Z,4748.00
2023-04-19T05:53:59.289Z,4496.00
2023-04-19T05:54:59.223Z,4624.00
2023-04-19T05:55:59.240Z,5288.00
2023-04-19T05:56:59.218Z,5648.00
2023-04-19T05:57:59.246Z,5612.00
2023-04-19T05:58:59.166Z,5036.00
2023-04-19T06:00:59.170Z,4676.00
2023-04-19T06:01:59.239Z,4752.00
2023-04-19T06:02:59.238Z,5204.00
2023-04-19T06:03:59.270Z,6828.00
2023-04-19T06:05:02.518Z,8032.00
2023-04-19T06:06:00.294Z,8260.00
2023-04-19T06:06:59.078Z,8424.00
2023-04-19T06:08:02.213Z,8816.00
2023-04-19T06:08:59.052Z,9352.00
2023-04-19T06:09:59.047Z,10788.00
2023-04-19T06:11:02.415Z,12580.00
2023-04-19T06:12:00.072Z,13244.00
2023-04-19T06:12:59.009Z,13028.00
2023-04-19T06:13:58.996Z,15232.00
2023-04-19T06:14:58.990Z,10316.00
2023-04-19T06:15:59.041Z,6440.00
2023-04-19T06:16:58.976Z,6636.00
2023-04-19T06:17:59.906Z,8720.00
2023-04-19T06:18:58.958Z,10636.00
2023-04-19T06:19:58.932Z,10368.00
2023-04-19T06:20:59.006Z,10852.00
2023-04-19T06:21:58.985Z,10428.00
2023-04-19T06:22:58.893Z,9304.00
2023-04-19T06:23:58.884Z,9812.00
2023-04-19T06:24:58.874Z,10352.00
2023-04-19T06:25:58.872Z,10796.00
2023-04-19T06:26:58.868Z,10148.00
2023-04-19T06:27:58.860Z,7304.00
2023-04-19T06:28:58.828Z,7812.00
2023-04-19T06:29:58.822Z,9144.00
2023-04-19T06:30:58.813Z,9736.00
2023-04-19T06:31:58.844Z,10336.00
2023-04-19T06:32:58.840Z,9920.00
2023-04-19T06:33:58.777Z,10052.00
2023-04-19T06:34:58.764Z,9620.00
2023-04-19T06:35:58.758Z,9932.00
2023-04-19T06:36:58.812Z,10520.00
2023-04-19T06:37:58.750Z,10268.00
2023-04-19T06:38:58.734Z,10568.00
2023-04-19T06:39:58.715Z,11312.00
2023-04-19T06:40:58.701Z,11388.00
2023-04-19T06:41:58.945Z,11620.00
2023-04-19T06:42:58.711Z,11308.00
2023-04-19T06:43:58.675Z,12024.00
2023-04-19T06:44:58.654Z,12088.00
2023-04-19T06:45:58.736Z,11768.00
2023-04-19T06:46:58.669Z,10948.00
2023-04-19T06:47:58.679Z,10332.00
2023-04-19T06:48:58.611Z,9292.00
2023-04-19T06:49:58.611Z,11956.00
2023-04-19T06:50:58.629Z,12204.00
2023-04-19T06:51:58.593Z,10896.00
2023-04-19T06:53:06.190Z,10984.00
2023-04-19T06:53:58.559Z,13000.00
2023-04-19T06:54:58.545Z,13384.00
2023-04-19T06:55:58.539Z,13648.00
2023-04-19T06:56:58.534Z,12244.00
2023-04-19T06:57:58.510Z,12744.00
2023-04-19T06:58:58.517Z,13248.00
2023-04-19T06:59:58.492Z,14088.00
2023-04-19T07:00:58.525Z,15152.00
2023-04-19T07:01:58.578Z,16544.00
2023-04-19T07:02:58.559Z,18656.00
2023-04-19T07:03:58.589Z,20160.00
2023-04-19T07:04:58.432Z,20928.00
2023-04-19T07:06:06.211Z,23232.00
2023-04-19T07:06:58.412Z,30496.00
2023-04-19T07:07:58.424Z,32800.00
2023-04-19T07:08:58.527Z,28832.00
2023-04-19T07:09:58.395Z,27744.00
2023-04-19T07:10:58.421Z,29120.00
2023-04-19T07:11:58.396Z,28064.00
2023-04-19T07:12:58.376Z,26400.00
2023-04-19T07:13:58.339Z,25216.00
2023-04-19T07:14:58.323Z,25376.00
2023-04-19T07:15:58.467Z,25888.00
2023-04-19T07:16:58.344Z,25664.00
2023-04-19T07:17:58.313Z,24384.00
2023-04-19T07:18:58.288Z,23296.00
2023-04-19T07:19:58.380Z,21792.00
2023-04-19T07:20:58.264Z,22144.00
2023-04-19T07:21:58.270Z,22720.00
2023-04-19T07:22:58.235Z,23456.00
2023-04-19T07:23:58.230Z,23712.00
2023-04-19T07:24:58.233Z,23680.00
2023-04-19T07:25:58.200Z,23296.00
2023-04-19T07:27:05.284Z,23584.00
2023-04-19T07:27:58.179Z,24000.00
2023-04-19T07:28:58.175Z,23968.00
2023-04-19T07:29:58.155Z,23680.00
2023-04-19T07:30:58.147Z,23968.00
2023-04-19T07:31:58.351Z,24864.00
2023-04-19T07:32:58.162Z,25504.00
2023-04-19T07:33:58.122Z,25504.00
2023-04-19T07:34:58.104Z,25632.00
2023-04-19T07:35:58.093Z,25728.00
2023-04-19T07:36:58.096Z,26240.00
2023-04-19T07:37:58.072Z,27136.00
2023-04-19T07:38:58.062Z,27616.00
2023-04-19T07:39:58.062Z,28768.00
2023-04-19T07:40:58.103Z,29952.00
2023-04-19T07:42:05.124Z,30112.00
2023-04-19T07:42:58.027Z,31040.00
2023-04-19T07:43:58.009Z,30752.00
2023-04-19T07:44:58.033Z,31264.00
2023-04-19T07:45:58.060Z,32352.00
2023-04-19T07:46:58.160Z,33248.00
2023-04-19T07:47:58.033Z,34496.00
2023-04-19T07:48:57.962Z,33536.00
2023-04-19T07:49:57.957Z,32832.00
2023-04-19T07:50:57.953Z,33664.00
2023-04-19T07:51:57.928Z,34144.00
2023-04-19T07:52:57.911Z,35648.00
2023-04-19T07:53:57.909Z,36416.00
2023-04-19T07:54:57.891Z,36832.00
2023-04-19T07:55:57.892Z,37792.00
2023-04-19T07:56:57.906Z,37504.00
2023-04-19T07:57:57.854Z,37536.00
2023-04-19T07:59:07.397Z,37888.00
2023-04-19T07:59:58.835Z,38048.00
2023-04-19T08:00:57.872Z,38048.00
2023-04-19T08:01:57.878Z,39264.00
2023-04-19T08:02:58.004Z,37664.00
2023-04-19T08:03:58.062Z,37376.00
2023-04-19T08:04:58.086Z,39296.00
2023-04-19T08:05:57.773Z,40896.00
2023-04-19T08:06:57.785Z,40704.00
2023-04-19T08:07:57.759Z,40544.00
2023-04-19T08:08:57.747Z,41152.00
2023-04-19T08:09:57.796Z,41920.00
2023-04-19T08:10:58.234Z,42304.00
2023-04-19T08:11:57.746Z,43200.00
2023-04-19T08:13:05.590Z,43936.00
2023-04-19T08:14:11.491Z,43584.00
2023-04-19T08:15:05.171Z,42304.00
2023-04-19T08:17:22.428Z,43040.00
2023-04-19T08:17:58.677Z,42880.00
2023-04-19T08:18:57.640Z,44320.00
2023-04-19T08:19:57.626Z,44768.00
2023-04-19T08:20:57.622Z,43840.00
2023-04-19T08:21:57.643Z,44736.00
2023-04-19T08:22:59.171Z,44448.00
2023-04-19T08:23:57.584Z,44000.00
2023-04-19T08:24:57.576Z,43872.00
2023-04-19T08:25:57.567Z,43840.00
2023-04-19T08:26:59.873Z,43360.00
2023-04-19T08:27:57.558Z,43200.00
2023-04-19T08:28:57.570Z,36000.00
2023-04-19T08:29:57.522Z,41888.00
2023-04-19T08:30:57.597Z,44224.00
2023-04-19T08:31:57.600Z,45824.00
2023-04-19T08:32:57.586Z,44192.00
2023-04-19T08:33:57.486Z,33472.00
2023-04-19T08:34:57.500Z,39904.00
2023-04-19T08:35:57.460Z,47008.00
2023-04-19T08:37:03.920Z,45024.00
2023-04-19T08:37:58.464Z,28992.00
2023-04-19T08:39:05.476Z,17568.00
2023-04-19T08:39:58.419Z,11476.00
2023-04-19T08:40:57.417Z,13216.00
2023-04-19T08:42:06.646Z,23392.00
2023-04-19T08:42:58.386Z,48064.00
2023-04-19T08:43:57.379Z,16800.00
2023-04-19T08:45:13.722Z,11052.00
2023-04-19T08:45:58.372Z,10516.00
2023-04-19T08:46:57.369Z,11424.00
2023-04-19T08:48:01.169Z,13824.00
2023-04-19T08:48:57.329Z,15272.00
2023-04-19T08:50:08.668Z,19456.00
2023-04-19T08:51:04.915Z,36448.00
2023-04-19T08:51:58.370Z,15436.00
2023-04-19T08:53:02.795Z,15892.00
2023-04-19T08:53:58.288Z,17792.00
2023-04-19T08:54:57.268Z,43360.00
2023-04-19T08:56:10.865Z,20256.00
2023-04-19T08:56:58.305Z,13056.00
2023-04-19T08:57:57.228Z,12612.00
2023-04-19T08:59:11.710Z,14188.00
2023-04-19T08:59:58.206Z,31488.00
2023-04-19T09:00:57.407Z,22080.00
2023-04-19T09:01:57.281Z,45472.00
2023-04-19T09:02:57.254Z,15764.00
2023-04-19T09:04:07.178Z,12696.00
2023-04-19T09:04:58.302Z,14632.00
2023-04-19T09:05:57.278Z,36128.00
2023-04-19T09:06:57.145Z,15780.00
2023-04-19T09:07:57.122Z,11476.00
2023-04-19T09:08:57.105Z,10196.00
2023-04-19T09:10:03.041Z,12848.00
2023-04-19T09:10:58.082Z,14124.00
2023-04-19T09:11:57.083Z,43968.00
2023-04-19T09:12:57.060Z,44288.00
2023-04-19T09:13:57.049Z,46080.00
2023-04-19T09:15:57.065Z,46912.00
2023-04-19T09:16:57.068Z,14500.00
2023-04-19T09:17:57.038Z,48320.00
2023-04-19T09:19:08.117Z,50240.00
2023-04-19T09:19:58.000Z,32832.00
2023-04-19T09:20:56.979Z,51680.00
2023-04-19T09:21:57.004Z,49920.00
2023-04-19T09:22:56.952Z,47456.00
2023-04-19T09:23:56.937Z,46368.00
2023-04-19T09:26:19.362Z,46144.00
2023-04-19T09:26:57.947Z,43104.00
2023-04-19T09:27:56.899Z,45888.00
2023-04-19T09:28:56.886Z,44960.00
2023-04-19T09:29:56.877Z,43488.00
2023-04-19T09:31:03.507Z,45824.00
2023-04-19T09:31:57.919Z,32992.00
2023-04-19T09:32:56.967Z,25984.00
2023-04-19T09:33:56.832Z,18496.00
2023-04-19T09:34:56.828Z,11324.00
2023-04-19T09:35:56.820Z,13716.00
2023-04-19T09:37:08.499Z,16800.00
2023-04-19T09:38:05.849Z,10332.00
2023-04-19T09:38:57.772Z,7996.00
2023-04-19T09:39:56.769Z,8004.00
2023-04-19T09:40:56.787Z,7752.00
2023-04-19T09:41:56.746Z,11348.00
2023-04-19T09:44:07.747Z,10004.00
2023-04-19T09:45:56.698Z,7864.00
2023-04-19T09:46:56.749Z,9932.00
2023-04-19T09:47:56.730Z,14556.00
2023-04-19T09:48:56.848Z,20032.00
2023-04-19T09:49:56.654Z,14996.00
2023-04-19T09:51:01.977Z,55392.00
2023-04-19T09:51:57.659Z,57888.00
2023-04-19T09:52:56.624Z,23712.00
2023-04-19T09:53:56.610Z,62304.00
2023-04-19T09:54:56.604Z,63168.00
2023-04-19T09:56:02.004Z,62432.00
2023-04-19T09:56:59.489Z,63936.00
2023-04-19T09:57:56.586Z,60960.00
2023-04-19T09:59:08.531Z,62880.00
2023-04-19T09:59:57.549Z,67584.00
2023-04-19T10:01:06.561Z,56480.00
2023-04-19T10:01:57.642Z,49632.00
2023-04-19T10:02:56.554Z,64320.00
2023-04-19T10:03:59.214Z,64896.00
2023-04-19T10:05:57.534Z,63264.00
2023-04-19T10:07:24.502Z,62656.00
2023-04-19T10:07:59.617Z,62304.00
2023-04-19T10:08:56.476Z,64480.00
2023-04-19T10:09:59.970Z,64704.00
2023-04-19T10:10:59.182Z,63552.00
2023-04-19T10:12:03.750Z,62048.00
2023-04-19T10:13:11.574Z,62176.00
2023-04-19T10:13:57.421Z,65856.00
2023-04-19T10:14:56.390Z,70112.00
2023-04-19T10:16:01.821Z,71808.00
2023-04-19T10:16:57.388Z,70208.00
2023-04-19T10:17:56.383Z,70720.00
2023-04-19T10:18:56.379Z,72416.00
2023-04-19T10:19:56.368Z,72416.00
2023-04-19T10:20:56.396Z,73248.00
2023-04-19T10:21:56.314Z,72736.00
2023-04-19T10:22:56.306Z,69568.00
2023-04-19T10:23:56.294Z,71456.00
2023-04-19T10:24:56.285Z,69120.00
2023-04-19T10:25:56.294Z,68800.00
2023-04-19T10:26:56.265Z,62528.00
2023-04-19T10:27:56.268Z,32864.00
2023-04-19T10:28:56.244Z,9592.00
2023-04-19T10:29:56.235Z,9648.00
2023-04-19T10:30:56.259Z,9072.00
2023-04-19T10:31:56.223Z,8852.00
2023-04-19T10:32:56.469Z,8880.00
2023-04-19T10:33:56.189Z,9760.00
2023-04-19T10:34:56.180Z,11256.00
2023-04-19T10:35:56.186Z,11020.00
2023-04-19T10:36:56.220Z,10220.00
2023-04-19T10:37:56.146Z,7628.00
2023-04-19T10:38:56.133Z,7808.00
2023-04-19T10:39:56.149Z,6956.00
2023-04-19T10:40:56.211Z,6000.00
2023-04-19T10:41:56.104Z,6488.00
2023-04-19T10:42:56.091Z,9112.00
2023-04-19T10:43:56.195Z,10776.00
2023-04-19T10:44:56.074Z,11740.00
2023-04-19T10:45:56.111Z,9784.00
2023-04-19T10:46:56.055Z,9100.00
2023-04-19T10:47:56.080Z,10016.00
2023-04-19T10:48:56.032Z,10944.00
2023-04-19T10:49:56.012Z,7680.00
2023-04-19T10:50:56.013Z,7628.00
2023-04-19T10:51:55.998Z,7668.00
2023-04-19T10:52:56.008Z,6900.00
2023-04-19T10:53:55.983Z,6728.00
2023-04-19T10:54:55.965Z,8524.00
2023-04-19T10:55:55.994Z,10640.00
2023-04-19T10:56:55.938Z,10800.00
2023-04-19T10:57:55.925Z,10372.00
2023-04-19T10:58:55.918Z,11436.00
2023-04-19T10:59:55.928Z,10932.00
2023-04-19T11:00:56.025Z,11052.00
2023-04-19T11:01:56.033Z,10812.00
2023-04-19T11:02:55.973Z,10212.00
2023-04-19T11:03:56.058Z,10228.00
2023-04-19T11:04:55.855Z,10236.00
2023-04-19T11:05:55.874Z,10104.00
2023-04-19T11:06:55.831Z,9964.00
2023-04-19T11:07:55.821Z,10004.00
2023-04-19T11:08:55.849Z,10232.00
2023-04-19T11:09:55.801Z,10556.00
2023-04-19T11:10:55.816Z,10200.00
2023-04-19T11:11:55.779Z,10468.00
2023-04-19T11:12:55.794Z,8808.00
2023-04-19T11:13:55.753Z,8444.00
2023-04-19T11:14:55.750Z,8760.00
2023-04-19T11:15:55.793Z,8900.00
2023-04-19T11:16:55.832Z,8896.00
2023-04-19T11:18:11.449Z,8824.00
2023-04-19T11:18:56.696Z,9796.00
2023-04-19T11:19:55.690Z,10088.00
2023-04-19T11:20:55.715Z,8908.00
2023-04-19T11:21:55.666Z,8440.00
2023-04-19T11:22:55.652Z,8908.00
2023-04-19T11:23:55.643Z,8436.00
2023-04-19T11:24:55.673Z,7776.00
2023-04-19T11:25:55.637Z,7336.00
2023-04-19T11:26:55.765Z,7460.00
2023-04-19T11:27:55.600Z,7832.00
2023-04-19T11:28:55.585Z,7756.00
2023-04-19T11:29:55.584Z,7888.00
2023-04-19T11:30:55.619Z,7956.00
2023-04-19T11:31:55.572Z,6848.00
2023-04-19T11:32:55.628Z,5696.00
2023-04-19T11:33:55.534Z,5032.00
2023-04-19T11:34:55.521Z,5576.00
2023-04-19T11:35:55.553Z,5756.00
2023-04-19T11:36:55.506Z,5588.00
2023-04-19T11:37:55.496Z,5364.00
2023-04-19T11:38:55.475Z,5396.00
2023-04-19T11:39:55.473Z,5700.00
2023-04-19T11:40:55.498Z,5992.00
2023-04-19T11:41:55.448Z,6524.00
2023-04-19T11:42:55.502Z,7136.00
2023-04-19T11:43:55.429Z,7792.00
2023-04-19T11:44:55.473Z,7512.00
2023-04-19T11:45:55.429Z,7552.00
2023-04-19T11:46:55.466Z,6828.00
2023-04-19T11:47:55.442Z,5896.00
2023-04-19T11:48:55.465Z,4408.00
2023-04-19T11:49:55.373Z,3616.00
2023-04-19T11:50:55.396Z,3264.00
2023-04-19T11:51:55.370Z,3224.00
2023-04-19T11:52:55.331Z,3340.00
2023-04-19T11:53:55.322Z,3540.00
2023-04-19T11:54:55.307Z,3732.00
2023-04-19T11:55:55.309Z,3884.00
2023-04-19T11:56:55.314Z,3964.00
2023-04-19T11:57:55.325Z,4100.00
2023-04-19T11:58:55.285Z,4372.00
2023-04-19T11:59:55.252Z,4916.00
2023-04-19T12:00:55.250Z,5692.00
2023-04-19T12:01:55.245Z,6340.00
2023-04-19T12:02:55.471Z,6632.00
2023-04-19T12:03:55.410Z,6796.00
2023-04-19T12:04:55.350Z,6892.00
2023-04-19T12:05:55.243Z,7156.00
2023-04-19T12:06:55.169Z,7448.00
2023-04-19T12:07:55.180Z,7616.00
2023-04-19T12:08:55.180Z,7572.00
2023-04-19T12:09:55.150Z,7544.00
2023-04-19T12:10:55.147Z,7616.00
2023-04-19T12:11:55.120Z,7672.00
2023-04-19T12:12:55.128Z,7676.00
2023-04-19T12:13:55.098Z,7852.00
2023-04-19T12:14:55.108Z,8116.00
2023-04-19T12:15:55.080Z,8224.00
2023-04-19T12:16:55.145Z,7988.00
2023-04-19T12:17:57.457Z,7388.00
2023-04-19T12:18:55.050Z,6832.00
2023-04-19T12:19:55.028Z,6720.00
2023-04-19T12:20:55.108Z,6708.00
2023-04-19T12:21:55.011Z,6432.00
2023-04-19T12:22:55.008Z,5780.00
2023-04-19T12:23:54.986Z,5068.00
2023-04-19T12:24:54.972Z,4660.00
2023-04-19T12:25:54.982Z,4448.00
2023-04-19T12:26:55.990Z,4480.00